首页
METAR-TAF:

METAR-TAF

机场 :

Ford Airport

Iron Mountain / Kingsford, 密歇根州, 美国

纬度: 45-48-51N, 经度: 088-06-32W, 海拔: 360米

当前天气观测

该预报发布于38分钟前的07:54 UTC
风速8节,风向西转西北
温度 -11°C
湿度 72%
气压 1008 hPa
能見度: 14.5公里
散云层高于2300英尺
小雪

METAR: KIMT 100754Z AUTO 30008KT 9SM -SN SCT023 M11/M15 A2976 RMK AO2 SLP098 P0000 T11111150

时间: 03:32 (08:32 UTC)


TAF: 丢失

超过4000个机场的气象观测和天气预报(METAR&TAF报告)。

可查询的气象台以黄色和红色小点在地图上表示。

将鼠标移到小点上方,可查看气象台名称。

然后点击查看天气观测和预报。

如需切换地图:点击带黑十字的绿色按钮放大地图;点击带横线的绿色按钮缩小地图;或者点击绿色箭头查看邻近地区的地图。


METAR-TAF: